sensor_id;sensor_type;location;lat;lon;timestamp;pressure;altitude;pressure_sealevel;temperature;humidity
66486;BME280;53303;47.476;8.084;2023-11-21T00:02:15;94846.00;;;19.35;48.63
66486;BME280;53303;47.476;8.084;2023-11-21T00:04:43;94846.53;;;19.34;48.61
66486;BME280;53303;47.476;8.084;2023-11-21T00:07:08;94842.78;;;19.31;48.55
66486;BME280;53303;47.476;8.084;2023-11-21T00:09:36;94846.53;;;19.34;48.47
66486;BME280;53303;47.476;8.084;2023-11-21T00:12:02;94844.25;;;19.38;48.58
66486;BME280;53303;47.476;8.084;2023-11-21T00:14:27;94850.06;;;19.34;48.68
66486;BME280;53303;47.476;8.084;2023-11-21T00:16:53;94837.31;;;19.26;48.62
66486;BME280;53303;47.476;8.084;2023-11-21T00:19:19;94842.78;;;19.31;48.62
66486;BME280;53303;47.476;8.084;2023-11-21T00:21:44;94839.00;;;19.34;48.51
66486;BME280;53303;47.476;8.084;2023-11-21T00:24:11;94844.75;;;19.36;48.58
66486;BME280;53303;47.476;8.084;2023-11-21T00:26:39;94837.47;;;19.33;48.71
66486;BME280;53303;47.476;8.084;2023-11-21T00:29:05;94824.16;;;19.32;48.59
66486;BME280;53303;47.476;8.084;2023-11-21T00:31:34;94832.94;;;19.36;48.45
66486;BME280;53303;47.476;8.084;2023-11-21T00:34:02;94842.22;;;19.38;48.61
66486;BME280;53303;47.476;8.084;2023-11-21T00:36:31;94831.66;;;19.37;48.53
66486;BME280;53303;47.476;8.084;2023-11-21T00:38:59;94831.19;;;19.33;48.71
66486;BME280;53303;47.476;8.084;2023-11-21T00:41:25;94830.47;;;19.32;48.58
66486;BME280;53303;47.476;8.084;2023-11-21T00:43:53;94829.41;;;19.35;48.83
66486;BME280;53303;47.476;8.084;2023-11-21T00:46:22;94827.94;;;19.34;48.54
66486;BME280;53303;47.476;8.084;2023-11-21T00:48:49;94797.41;;;19.15;48.22
66486;BME280;53303;47.476;8.084;2023-11-21T00:51:14;94815.88;;;19.32;48.67
66486;BME280;53303;47.476;8.084;2023-11-21T00:53:40;94818.41;;;19.30;48.87
66486;BME280;53303;47.476;8.084;2023-11-21T00:56:05;94824.66;;;19.36;48.78
66486;BME280;53303;47.476;8.084;2023-11-21T00:58:34;94808.06;;;19.30;48.83
66486;BME280;53303;47.476;8.084;2023-11-21T01:01:00;94807.78;;;19.34;48.71
66486;BME280;53303;47.476;8.084;2023-11-21T01:03:28;94809.59;;;19.31;48.86
66486;BME280;53303;47.476;8.084;2023-11-21T01:05:54;94816.09;;;19.34;48.80
66486;BME280;53303;47.476;8.084;2023-11-21T01:08:19;94814.09;;;19.34;48.93
66486;BME280;53303;47.476;8.084;2023-11-21T01:10:49;94809.31;;;19.35;48.82
66486;BME280;53303;47.476;8.084;2023-11-21T01:13:14;94804.78;;;19.32;48.67
66486;BME280;53303;47.476;8.084;2023-11-21T01:15:40;94799.25;;;19.32;48.78
66486;BME280;53303;47.476;8.084;2023-11-21T01:18:07;94812.31;;;19.37;48.90
66486;BME280;53303;47.476;8.084;2023-11-21T01:20:36;94804.06;;;19.31;48.87
66486;BME280;53303;47.476;8.084;2023-11-21T01:23:01;94815.13;;;19.31;48.79
66486;BME280;53303;47.476;8.084;2023-11-21T01:25:26;94821.09;;;19.35;48.91
66486;BME280;53303;47.476;8.084;2023-11-21T01:27:52;94824.66;;;19.36;48.79
66486;BME280;53303;47.476;8.084;2023-11-21T01:30:17;94834.94;;;19.35;48.72
66486;BME280;53303;47.476;8.084;2023-11-21T01:32:43;94818.41;;;19.30;48.74
66486;BME280;53303;47.476;8.084;2023-11-21T01:35:09;94825.44;;;19.31;48.74
66486;BME280;53303;47.476;8.084;2023-11-21T01:37:36;94819.69;;;19.29;48.92
66486;BME280;53303;47.476;8.084;2023-11-21T01:40:02;94825.97;;;19.29;48.77
66486;BME280;53303;47.476;8.084;2023-11-21T01:42:30;94843.53;;;19.32;48.72
66486;BME280;53303;47.476;8.084;2023-11-21T01:44:55;94821.69;;;19.28;48.86
66486;BME280;53303;47.476;8.084;2023-11-21T01:47:21;94821.41;;;19.32;49.02
66486;BME280;53303;47.476;8.084;2023-11-21T01:49:46;94832.69;;;19.34;48.93
66486;BME280;53303;47.476;8.084;2023-11-21T01:52:12;94825.66;;;19.33;48.90
66486;BME280;53303;47.476;8.084;2023-11-21T01:54:41;94819.13;;;19.30;48.87
66486;BME280;53303;47.476;8.084;2023-11-21T01:57:07;94825.44;;;19.31;49.05
66486;BME280;53303;47.476;8.084;2023-11-21T01:59:36;94817.66;;;19.29;48.84
66486;BME280;53303;47.476;8.084;2023-11-21T02:02:06;94815.88;;;19.32;48.91
66486;BME280;53303;47.476;8.084;2023-11-21T02:04:33;94794.25;;;19.30;49.09
66486;BME280;53303;47.476;8.084;2023-11-21T02:06:59;94804.28;;;19.33;49.08
66486;BME280;53303;47.476;8.084;2023-11-21T02:09:28;94815.88;;;19.32;49.01
66486;BME280;53303;47.476;8.084;2023-11-21T02:11:55;94812.34;;;19.31;48.94
66486;BME280;53303;47.476;8.084;2023-11-21T02:14:25;94823.13;;;19.35;49.16
66486;BME280;53303;47.476;8.084;2023-11-21T02:16:52;94813.59;;;19.30;48.92
66486;BME280;53303;47.476;8.084;2023-11-21T02:19:19;94805.56;;;19.32;48.91
66486;BME280;53303;47.476;8.084;2023-11-21T02:21:49;94795.75;;;19.31;48.80
66486;BME280;53303;47.476;8.084;2023-11-21T02:24:21;94808.56;;;19.34;48.93
66486;BME280;53303;47.476;8.084;2023-11-21T02:26:48;94798.53;;;19.31;49.27
66486;BME280;53303;47.476;8.084;2023-11-21T02:29:14;94786.50;;;19.29;49.07
66486;BME280;53303;47.476;8.084;2023-11-21T02:31:41;94778.72;;;19.27;49.09
66486;BME280;53303;47.476;8.084;2023-11-21T02:34:16;94784.41;;;19.35;49.00
66486;BME280;53303;47.476;8.084;2023-11-21T02:36:43;94786.94;;;19.33;49.04
66486;BME280;53303;47.476;8.084;2023-11-21T02:39:10;94783.44;;;19.32;49.01
66486;BME280;53303;47.476;8.084;2023-11-21T02:41:37;94784.91;;;19.33;48.91
66486;BME280;53303;47.476;8.084;2023-11-21T02:44:02;94773.63;;;19.31;49.01
66486;BME280;53303;47.476;8.084;2023-11-21T02:46:28;94773.13;;;19.33;48.83
66486;BME280;53303;47.476;8.084;2023-11-21T02:48:53;94769.13;;;19.28;49.04
66486;BME280;53303;47.476;8.084;2023-11-21T02:51:19;94772.88;;;19.31;49.06
66486;BME280;53303;47.476;8.084;2023-11-21T02:53:45;94762.34;;;19.29;49.27
66486;BME280;53303;47.476;8.084;2023-11-21T02:56:12;94762.84;;;19.28;49.24
66486;BME280;53303;47.476;8.084;2023-11-21T02:58:41;94775.13;;;19.32;49.15
66486;BME280;53303;47.476;8.084;2023-11-21T03:01:07;94774.88;;;19.30;49.12
66486;BME280;53303;47.476;8.084;2023-11-21T03:03:33;94773.91;;;19.28;49.19
66486;BME280;53303;47.476;8.084;2023-11-21T03:05:59;94762.34;;;19.29;48.90
66486;BME280;53303;47.476;8.084;2023-11-21T03:08:24;94772.94;;;19.25;49.24
66486;BME280;53303;47.476;8.084;2023-11-21T03:10:52;94771.16;;;19.28;49.40
66486;BME280;53303;47.476;8.084;2023-11-21T03:13:17;94772.94;;;19.25;49.28
66486;BME280;53303;47.476;8.084;2023-11-21T03:15:42;94776.41;;;19.31;49.04
66486;BME280;53303;47.476;8.084;2023-11-21T03:18:08;94767.66;;;19.27;49.25
66486;BME280;53303;47.476;8.084;2023-11-21T03:20:33;94779.16;;;19.31;49.11
66486;BME280;53303;47.476;8.084;2023-11-21T03:23:00;94767.88;;;19.29;49.14
66486;BME280;53303;47.476;8.084;2023-11-21T03:25:25;94774.16;;;19.30;49.22
66486;BME280;53303;47.476;8.084;2023-11-21T03:27:51;94757.84;;;19.26;49.40
66486;BME280;53303;47.476;8.084;2023-11-21T03:30:16;94768.63;;;19.30;49.15
66486;BME280;53303;47.476;8.084;2023-11-21T03:32:41;94780.19;;;19.28;49.15
66486;BME280;53303;47.476;8.084;2023-11-21T03:35:07;94784.97;;;19.28;49.35
66486;BME280;53303;47.476;8.084;2023-11-21T03:37:35;94793.72;;;19.32;49.29
66486;BME280;53303;47.476;8.084;2023-11-21T03:40:07;94787.75;;;19.28;49.14
66486;BME280;53303;47.476;8.084;2023-11-21T03:42:39;94785.50;;;19.26;48.84
66486;BME280;53303;47.476;8.084;2023-11-21T03:45:05;94785.44;;;19.32;49.33
66486;BME280;53303;47.476;8.084;2023-11-21T03:47:36;94780.41;;;19.30;49.35
66486;BME280;53303;47.476;8.084;2023-11-21T03:50:01;94783.19;;;19.30;49.26
66486;BME280;53303;47.476;8.084;2023-11-21T03:52:28;94785.94;;;19.30;49.45
66486;BME280;53303;47.476;8.084;2023-11-21T03:54:54;94794.03;;;19.28;49.33
66486;BME280;53303;47.476;8.084;2023-11-21T03:57:21;94797.78;;;19.31;49.28
66486;BME280;53303;47.476;8.084;2023-11-21T03:59:46;94788.03;;;19.24;49.21
66486;BME280;53303;47.476;8.084;2023-11-21T04:02:11;94795.06;;;19.25;49.39
66486;BME280;53303;47.476;8.084;2023-11-21T04:04:37;94791.75;;;19.27;49.24
66486;BME280;53303;47.476;8.084;2023-11-21T04:07:02;94792.53;;;19.27;49.17
66486;BME280;53303;47.476;8.084;2023-11-21T04:09:30;94796.28;;;19.30;49.13
66486;BME280;53303;47.476;8.084;2023-11-21T04:11:56;94795.53;;;19.29;49.28
66486;BME280;53303;47.476;8.084;2023-11-21T04:14:23;94797.28;;;19.27;49.40
66486;BME280;53303;47.476;8.084;2023-11-21T04:16:49;94808.84;;;19.31;49.18
66486;BME280;53303;47.476;8.084;2023-11-21T04:19:17;94806.59;;;19.29;49.13
66486;BME280;53303;47.476;8.084;2023-11-21T04:21:42;94794.53;;;19.27;49.30
66486;BME280;53303;47.476;8.084;2023-11-21T04:24:08;94790.28;;;19.26;49.35
66486;BME280;53303;47.476;8.084;2023-11-21T04:26:34;94774.31;;;19.13;49.45
66486;BME280;53303;47.476;8.084;2023-11-21T04:29:00;94790.22;;;19.31;49.27
66486;BME280;53303;47.476;8.084;2023-11-21T04:31:25;94788.72;;;19.30;49.32
66486;BME280;53303;47.476;8.084;2023-11-21T04:33:53;94785.25;;;19.24;49.30
66486;BME280;53303;47.476;8.084;2023-11-21T04:36:18;94795.75;;;19.31;49.22
66486;BME280;53303;47.476;8.084;2023-11-21T04:38:47;94795.00;;;19.31;49.32
66486;BME280;53303;47.476;8.084;2023-11-21T04:41:12;94795.81;;;19.26;49.38
66486;BME280;53303;47.476;8.084;2023-11-21T04:43:38;94797.59;;;19.23;49.18
66486;BME280;53303;47.476;8.084;2023-11-21T04:46:03;94798.13;;;19.21;49.43
66486;BME280;53303;47.476;8.084;2023-11-21T04:48:29;94806.13;;;19.25;49.38
66486;BME280;53303;47.476;8.084;2023-11-21T04:50:59;94807.41;;;19.24;49.45
66486;BME280;53303;47.476;8.084;2023-11-21T04:53:24;94813.16;;;19.26;49.42
66486;BME280;53303;47.476;8.084;2023-11-21T04:55:50;94808.38;;;19.27;49.53
66486;BME280;53303;47.476;8.084;2023-11-21T04:58:15;94803.88;;;19.24;49.37
66486;BME280;53303;47.476;8.084;2023-11-21T05:00:41;94811.91;;;19.27;49.58
66486;BME280;53303;47.476;8.084;2023-11-21T05:03:09;94812.41;;;19.26;49.51
66486;BME280;53303;47.476;8.084;2023-11-21T05:05:37;94815.91;;;19.26;49.57
66486;BME280;53303;47.476;8.084;2023-11-21T05:08:02;94809.13;;;19.27;49.18
66486;BME280;53303;47.476;8.084;2023-11-21T05:10:28;94811.38;;;19.29;48.96
66486;BME280;53303;47.476;8.084;2023-11-21T05:12:54;94809.13;;;19.27;48.87
66486;BME280;53303;47.476;8.084;2023-11-21T05:15:21;94815.19;;;19.26;48.86
66486;BME280;53303;47.476;8.084;2023-11-21T05:17:48;94817.44;;;19.27;48.61
66486;BME280;53303;47.476;8.084;2023-11-21T05:20:15;94816.16;;;19.28;48.37
66486;BME280;53303;47.476;8.084;2023-11-21T05:22:49;94807.16;;;19.22;48.52
66486;BME280;53303;47.476;8.084;2023-11-21T05:25:14;94812.94;;;19.24;48.40
66486;BME280;53303;47.476;8.084;2023-11-21T05:27:46;94819.44;;;19.27;48.39
66486;BME280;53303;47.476;8.084;2023-11-21T05:30:13;94815.47;;;19.22;48.28
66486;BME280;53303;47.476;8.084;2023-11-21T05:32:39;94815.69;;;19.24;48.56
66486;BME280;53303;47.476;8.084;2023-11-21T05:35:05;94813.91;;;19.27;48.57
66486;BME280;53303;47.476;8.084;2023-11-21T05:37:39;94817.06;;;19.12;48.84
66486;BME280;53303;47.476;8.084;2023-11-21T05:40:06;94807.69;;;19.20;48.52
66486;BME280;53303;47.476;8.084;2023-11-21T05:42:33;94800.63;;;19.19;48.68
66486;BME280;53303;47.476;8.084;2023-11-21T05:44:58;94812.69;;;19.22;48.71
66486;BME280;53303;47.476;8.084;2023-11-21T05:47:24;94820.47;;;19.24;48.61
66486;BME280;53303;47.476;8.084;2023-11-21T05:49:53;94819.03;;;19.17;48.57
66486;BME280;53303;47.476;8.084;2023-11-21T05:52:19;94801.19;;;19.12;48.59
66486;BME280;53303;47.476;8.084;2023-11-21T05:54:45;94815.97;;;19.20;48.61
66486;BME280;53303;47.476;8.084;2023-11-21T05:57:13;94829.28;;;19.22;48.68
66486;BME280;53303;47.476;8.084;2023-11-21T05:59:38;94821.03;;;19.16;48.63
66486;BME280;53303;47.476;8.084;2023-11-21T06:02:03;94823.28;;;19.18;48.86
66486;BME280;53303;47.476;8.084;2023-11-21T06:04:30;94824.03;;;19.18;48.97
66486;BME280;53303;47.476;8.084;2023-11-21T06:07:00;94835.06;;;19.24;48.72
66486;BME280;53303;47.476;8.084;2023-11-21T06:09:26;94840.34;;;19.22;48.91
66486;BME280;53303;47.476;8.084;2023-11-21T06:11:52;94824.56;;;19.17;48.78
66486;BME280;53303;47.476;8.084;2023-11-21T06:14:23;94838.38;;;19.17;48.96
66486;BME280;53303;47.476;8.084;2023-11-21T06:16:48;94842.38;;;19.21;48.99
66486;BME280;53303;47.476;8.084;2023-11-21T06:19:17;94848.66;;;19.22;49.01
66486;BME280;53303;47.476;8.084;2023-11-21T06:21:46;94843.16;;;19.16;48.95
66486;BME280;53303;47.476;8.084;2023-11-21T06:24:12;94843.91;;;19.17;49.07
66486;BME280;53303;47.476;8.084;2023-11-21T06:26:38;94854.41;;;19.24;48.97
66486;BME280;53303;47.476;8.084;2023-11-21T06:29:03;94849.91;;;19.21;49.11
66486;BME280;53303;47.476;8.084;2023-11-21T06:31:29;94849.44;;;19.17;49.16
66486;BME280;53303;47.476;8.084;2023-11-21T06:33:57;94859.94;;;19.24;49.30
66486;BME280;53303;47.476;8.084;2023-11-21T06:36:25;94848.19;;;19.18;49.07
66486;BME280;53303;47.476;8.084;2023-11-21T06:38:51;94858.97;;;19.21;49.13
66486;BME280;53303;47.476;8.084;2023-11-21T06:41:17;94861.97;;;19.24;49.24
66486;BME280;53303;47.476;8.084;2023-11-21T06:43:42;94863.97;;;19.23;49.38
66486;BME280;53303;47.476;8.084;2023-11-21T06:46:11;94869.25;;;19.21;49.33
66486;BME280;53303;47.476;8.084;2023-11-21T06:48:37;94870.53;;;19.20;49.39
66486;BME280;53303;47.476;8.084;2023-11-21T06:51:04;94868.28;;;19.18;49.21
66486;BME280;53303;47.476;8.084;2023-11-21T06:53:29;94867.28;;;19.16;49.32
66486;BME280;53303;47.476;8.084;2023-11-21T06:55:54;94881.59;;;19.20;49.51
66486;BME280;53303;47.476;8.084;2023-11-21T06:58:20;94868.81;;;19.17;49.46
66486;BME280;53303;47.476;8.084;2023-11-21T07:00:45;94870.31;;;19.18;49.20
66486;BME280;53303;47.476;8.084;2023-11-21T07:03:13;94870.31;;;19.18;49.53
66486;BME280;53303;47.476;8.084;2023-11-21T07:05:39;94870.31;;;19.18;49.46
66486;BME280;53303;47.476;8.084;2023-11-21T07:08:04;94879.81;;;19.23;49.47
66486;BME280;53303;47.476;8.084;2023-11-21T07:10:30;94875.84;;;19.18;49.37
66486;BME280;53303;47.476;8.084;2023-11-21T07:13:00;94896.66;;;19.25;49.39
66486;BME280;53303;47.476;8.084;2023-11-21T07:15:28;94889.41;;;19.21;49.40
66486;BME280;53303;47.476;8.084;2023-11-21T07:17:54;94881.84;;;19.22;49.68
66486;BME280;53303;47.476;8.084;2023-11-21T07:20:22;94874.78;;;19.21;49.65
66486;BME280;53303;47.476;8.084;2023-11-21T07:22:48;94883.09;;;19.21;49.57
66486;BME280;53303;47.476;8.084;2023-11-21T07:25:13;94877.84;;;19.17;49.57
66486;BME280;53303;47.476;8.084;2023-11-21T07:27:38;94868.56;;;19.15;49.58
66486;BME280;53303;47.476;8.084;2023-11-21T07:30:04;94886.88;;;19.24;49.70
66486;BME280;53303;47.476;8.084;2023-11-21T07:32:31;94869.81;;;19.14;49.66
66486;BME280;53303;47.476;8.084;2023-11-21T07:34:57;94881.84;;;19.22;49.36
66486;BME280;53303;47.476;8.084;2023-11-21T07:37:26;94876.59;;;19.18;49.69
66486;BME280;53303;47.476;8.084;2023-11-21T07:39:54;94873.09;;;19.18;49.57
66486;BME280;53303;47.476;8.084;2023-11-21T07:42:24;94886.63;;;19.21;49.68
66486;BME280;53303;47.476;8.084;2023-11-21T07:44:51;94888.84;;;19.23;49.57
66486;BME280;53303;47.476;8.084;2023-11-21T07:47:17;94880.59;;;19.17;49.77
66486;BME280;53303;47.476;8.084;2023-11-21T07:49:42;94892.91;;;19.22;49.79
66486;BME280;53303;47.476;8.084;2023-11-21T07:52:12;94891.38;;;19.21;49.73
66486;BME280;53303;47.476;8.084;2023-11-21T07:54:37;94876.63;;;19.13;49.73
66486;BME280;53303;47.476;8.084;2023-11-21T07:57:03;94892.41;;;19.24;49.72
66486;BME280;53303;47.476;8.084;2023-11-21T07:59:29;94901.44;;;19.24;49.85
66486;BME280;53303;47.476;8.084;2023-11-21T08:01:57;94888.63;;;19.21;49.67
66486;BME280;53303;47.476;8.084;2023-11-21T08:04:23;94893.41;;;19.20;49.73
66486;BME280;53303;47.476;8.084;2023-11-21T08:06:48;94899.91;;;19.23;49.64
66486;BME280;53303;47.476;8.084;2023-11-21T08:09:14;94885.91;;;19.15;49.72
66486;BME280;53303;47.476;8.084;2023-11-21T08:11:42;94901.19;;;19.22;49.71
66486;BME280;53303;47.476;8.084;2023-11-21T08:14:08;94897.69;;;19.21;49.74
66486;BME280;53303;47.476;8.084;2023-11-21T08:16:33;94908.22;;;19.23;49.83
66486;BME280;53303;47.476;8.084;2023-11-21T08:18:59;94897.44;;;19.19;49.67
66486;BME280;53303;47.476;8.084;2023-11-21T08:21:28;94911.75;;;19.24;49.77
66486;BME280;53303;47.476;8.084;2023-11-21T08:23:54;94900.72;;;19.18;49.97
66486;BME280;53303;47.476;8.084;2023-11-21T08:26:23;94907.25;;;19.20;49.78
66486;BME280;53303;47.476;8.084;2023-11-21T08:28:49;94909.25;;;19.20;50.01
66486;BME280;53303;47.476;8.084;2023-11-21T08:31:14;94911.03;;;19.17;49.93
66486;BME280;53303;47.476;8.084;2023-11-21T08:33:41;94914.06;;;19.14;50.03
66486;BME280;53303;47.476;8.084;2023-11-21T08:36:07;94927.34;;;19.21;49.78
66486;BME280;53303;47.476;8.084;2023-11-21T08:38:34;94925.88;;;19.20;49.86
66486;BME280;53303;47.476;8.084;2023-11-21T08:41:04;94916.56;;;19.17;49.88
66486;BME280;53303;47.476;8.084;2023-11-21T08:43:35;94922.09;;;19.17;49.92
66486;BME280;53303;47.476;8.084;2023-11-21T08:46:06;94921.59;;;19.19;49.76
66486;BME280;53303;47.476;8.084;2023-11-21T08:48:31;94925.63;;;19.18;49.83
66486;BME280;53303;47.476;8.084;2023-11-21T08:50:57;94929.13;;;19.18;49.94
66486;BME280;53303;47.476;8.084;2023-11-21T08:53:22;94926.88;;;19.17;49.77
66486;BME280;53303;47.476;8.084;2023-11-21T08:55:50;94936.16;;;19.19;49.88
66486;BME280;53303;47.476;8.084;2023-11-21T08:58:16;94936.44;;;19.16;49.83
66486;BME280;53303;47.476;8.084;2023-11-21T09:00:43;94942.47;;;19.20;49.78
66486;BME280;53303;47.476;8.084;2023-11-21T09:03:11;94946.19;;;19.23;49.80
66486;BME280;53303;47.476;8.084;2023-11-21T09:05:40;94944.94;;;19.24;50.03
66486;BME280;53303;47.476;8.084;2023-11-21T09:08:06;94946.94;;;19.23;49.88
66486;BME280;53303;47.476;8.084;2023-11-21T09:10:33;94956.75;;;19.24;49.89
66486;BME280;53303;47.476;8.084;2023-11-21T09:13:04;94944.94;;;19.24;49.92
66486;BME280;53303;47.476;8.084;2023-11-21T09:15:31;94941.69;;;19.19;50.02
66486;BME280;53303;47.476;8.084;2023-11-21T09:17:56;94942.72;;;19.16;49.94
66486;BME280;53303;47.476;8.084;2023-11-21T09:20:22;94944.44;;;19.19;49.79
66486;BME280;53303;47.476;8.084;2023-11-21T09:22:49;94954.72;;;19.25;49.97
66486;BME280;53303;47.476;8.084;2023-11-21T09:25:16;94960.25;;;19.25;49.94
66486;BME280;53303;47.476;8.084;2023-11-21T09:27:43;94953.00;;;19.21;50.05
66486;BME280;53303;47.476;8.084;2023-11-21T09:30:11;94943.25;;;19.15;49.96
66486;BME280;53303;47.476;8.084;2023-11-21T09:32:40;94956.28;;;19.20;49.97
66486;BME280;53303;47.476;8.084;2023-11-21T09:35:06;94955.25;;;19.23;49.84
66486;BME280;53303;47.476;8.084;2023-11-21T09:37:33;94961.53;;;19.24;49.95
66486;BME280;53303;47.476;8.084;2023-11-21T09:39:59;94959.53;;;19.24;49.90
66486;BME280;53303;47.476;8.084;2023-11-21T09:42:39;94960.53;;;19.21;50.06
66486;BME280;53303;47.476;8.084;2023-11-21T09:45:18;94962.28;;;19.24;50.11
66486;BME280;53303;47.476;8.084;2023-11-21T09:47:46;94952.75;;;19.19;49.95
66486;BME280;53303;47.476;8.084;2023-11-21T09:50:17;94956.25;;;19.26;49.94
66486;BME280;53303;47.476;8.084;2023-11-21T09:52:54;94958.25;;;19.25;49.92
66486;BME280;53303;47.476;8.084;2023-11-21T09:55:21;94916.19;;;18.96;49.84
66486;BME280;53303;47.476;8.084;2023-11-21T09:57:53;94963.78;;;19.25;49.91
66486;BME280;53303;47.476;8.084;2023-11-21T10:00:19;94963.03;;;19.25;49.96
66486;BME280;53303;47.476;8.084;2023-11-21T10:02:49;94968.78;;;19.27;49.91
66486;BME280;53303;47.476;8.084;2023-11-21T10:05:16;94963.25;;;19.27;49.89
66486;BME280;53303;47.476;8.084;2023-11-21T10:07:43;94954.50;;;19.23;50.10
66486;BME280;53303;47.476;8.084;2023-11-21T10:10:10;94954.72;;;19.25;49.98
66486;BME280;53303;47.476;8.084;2023-11-21T10:12:39;94955.72;;;19.27;49.96
66486;BME280;53303;47.476;8.084;2023-11-21T10:15:08;94947.44;;;19.27;49.99
66486;BME280;53303;47.476;8.084;2023-11-21T10:17:36;94951.97;;;19.25;49.92
66486;BME280;53303;47.476;8.084;2023-11-21T10:20:09;94956.97;;;19.26;50.00
66486;BME280;53303;47.476;8.084;2023-11-21T10:22:40;94962.00;;;19.28;49.73
66486;BME280;53303;47.476;8.084;2023-11-21T10:25:09;94960.75;;;19.29;50.01
66486;BME280;53303;47.476;8.084;2023-11-21T10:27:36;94966.28;;;19.29;49.98
66486;BME280;53303;47.476;8.084;2023-11-21T10:30:05;94964.78;;;19.28;50.14
66486;BME280;53303;47.476;8.084;2023-11-21T10:32:33;94961.25;;;19.27;50.10
66486;BME280;53303;47.476;8.084;2023-11-21T10:35:01;94959.97;;;19.28;50.09
66486;BME280;53303;47.476;8.084;2023-11-21T10:37:34;94962.00;;;19.28;50.08
66486;BME280;53303;47.476;8.084;2023-11-21T10:40:07;94963.53;;;19.29;49.92
66486;BME280;53303;47.476;8.084;2023-11-21T10:42:37;94958.78;;;19.24;50.18
66486;BME280;53303;47.476;8.084;2023-11-21T10:45:04;94973.31;;;19.30;49.94
66486;BME280;53303;47.476;8.084;2023-11-21T10:47:35;94968.28;;;19.28;50.00
66486;BME280;53303;47.476;8.084;2023-11-21T10:50:01;94968.28;;;19.28;50.27
66486;BME280;53303;47.476;8.084;2023-11-21T10:52:27;94965.00;;;19.30;49.92
66486;BME280;53303;47.476;8.084;2023-11-21T10:54:52;94961.03;;;19.25;49.94
66486;BME280;53303;47.476;8.084;2023-11-21T10:57:18;94961.25;;;19.27;50.16
66486;BME280;53303;47.476;8.084;2023-11-21T10:59:47;94961.50;;;19.29;49.98
66486;BME280;53303;47.476;8.084;2023-11-21T11:02:26;94958.25;;;19.25;50.05
66486;BME280;53303;47.476;8.084;2023-11-21T11:04:58;94958.00;;;19.23;50.20
66486;BME280;53303;47.476;8.084;2023-11-21T11:07:27;94971.06;;;19.28;50.21
66486;BME280;53303;47.476;8.084;2023-11-21T11:09:58;94960.25;;;19.25;49.89
66486;BME280;53303;47.476;8.084;2023-11-21T11:12:24;94959.00;;;19.26;49.92
66486;BME280;53303;47.476;8.084;2023-11-21T11:14:52;94956.97;;;19.26;49.95
66486;BME280;53303;47.476;8.084;2023-11-21T11:17:19;94970.53;;;19.30;50.08
66486;BME280;53303;47.476;8.084;2023-11-21T11:19:47;94965.00;;;19.30;50.02
66486;BME280;53303;47.476;8.084;2023-11-21T11:22:36;94958.00;;;19.23;50.03
66486;BME280;53303;47.476;8.084;2023-11-21T11:25:30;94966.56;;;19.25;50.21
66486;BME280;53303;47.476;8.084;2023-11-21T11:28:04;94966.78;;;19.27;49.99
66486;BME280;53303;47.476;8.084;2023-11-21T11:31:24;94962.78;;;19.23;50.03
66486;BME280;53303;47.476;8.084;2023-11-21T11:38:49;94956.75;;;19.24;49.75
66486;BME280;53303;47.476;8.084;2023-11-21T11:41:24;94939.22;;;19.10;50.19
66486;BME280;53303;47.476;8.084;2023-11-21T11:43:50;94960.50;;;19.27;49.98
66486;BME280;53303;47.476;8.084;2023-11-21T11:46:16;94958.72;;;19.29;50.14
66486;BME280;53303;47.476;8.084;2023-11-21T11:48:47;94964.25;;;19.29;49.83
66486;BME280;53303;47.476;8.084;2023-11-21T11:51:15;94966.28;;;19.29;50.09
66486;BME280;53303;47.476;8.084;2023-11-21T11:53:46;94965.50;;;19.28;50.11
66486;BME280;53303;47.476;8.084;2023-11-21T11:56:23;94971.56;;;19.27;50.17
66486;BME280;53303;47.476;8.084;2023-11-21T11:58:54;94967.59;;;19.22;50.13
66486;BME280;53303;47.476;8.084;2023-11-21T12:01:21;94972.56;;;19.29;50.33
66486;BME280;53303;47.476;8.084;2023-11-21T12:06:46;94970.31;;;19.28;50.14
66486;BME280;53303;47.476;8.084;2023-11-21T12:09:21;94971.06;;;19.28;50.06
66486;BME280;53303;47.476;8.084;2023-11-21T12:11:48;94972.84;;;19.26;50.20
66486;BME280;53303;47.476;8.084;2023-11-21T12:14:14;94977.09;;;19.27;50.20
66486;BME280;53303;47.476;8.084;2023-11-21T12:16:40;94972.56;;;19.29;50.09
66486;BME280;53303;47.476;8.084;2023-11-21T12:19:08;94969.84;;;19.24;50.22
66486;BME280;53303;47.476;8.084;2023-11-21T12:21:34;94983.63;;;19.29;50.15
66486;BME280;53303;47.476;8.084;2023-11-21T12:23:59;94969.34;;;19.25;50.03
66486;BME280;53303;47.476;8.084;2023-11-21T12:26:26;94976.13;;;19.24;49.79
66486;BME280;53303;47.476;8.084;2023-11-21T12:28:53;94990.66;;;19.30;50.08
66486;BME280;53303;47.476;8.084;2023-11-21T12:31:24;94980.88;;;19.29;50.08
66486;BME280;53303;47.476;8.084;2023-11-21T12:33:50;94975.34;;;19.29;50.01
66486;BME280;53303;47.476;8.084;2023-11-21T12:36:16;94983.63;;;19.29;50.05
66486;BME280;53303;47.476;8.084;2023-11-21T12:38:42;94976.13;;;19.24;50.22
66486;BME280;53303;47.476;8.084;2023-11-21T12:41:09;94975.59;;;19.26;50.14
66486;BME280;53303;47.476;8.084;2023-11-21T12:43:35;94987.66;;;19.28;50.31
66486;BME280;53303;47.476;8.084;2023-11-21T12:46:07;94982.63;;;19.27;50.10
66486;BME280;53303;47.476;8.084;2023-11-21T12:48:40;94991.19;;;19.29;50.09
66486;BME280;53303;47.476;8.084;2023-11-21T12:51:10;94989.16;;;19.29;50.01
66486;BME280;53303;47.476;8.084;2023-11-21T12:53:37;94991.47;;;19.25;50.02
66486;BME280;53303;47.476;8.084;2023-11-21T12:56:07;94966.66;;;19.08;50.07
66486;BME280;53303;47.476;8.084;2023-11-21T12:58:35;94989.72;;;19.22;50.01
66486;BME280;53303;47.476;8.084;2023-11-21T13:01:01;94996.72;;;19.29;50.05
66486;BME280;53303;47.476;8.084;2023-11-21T13:03:29;94992.44;;;19.28;50.07
66486;BME280;53303;47.476;8.084;2023-11-21T13:05:55;94996.72;;;19.29;50.11
66486;BME280;53303;47.476;8.084;2023-11-21T13:08:23;94976.13;;;19.24;50.11
66486;BME280;53303;47.476;8.084;2023-11-21T13:10:55;94981.88;;;19.26;50.28